createdAt,value
2018-01-15T00:00:37.912Z,0.00
2018-01-15T00:01:51.822Z,-0.01
2018-01-15T00:02:57.003Z,-0.02
2018-01-15T00:04:01.292Z,-0.01
2018-01-15T00:05:08.566Z,-0.05
2018-01-15T00:06:13.759Z,-0.03
2018-01-15T00:07:18.164Z,-0.05
2018-01-15T00:08:24.450Z,-0.07
2018-01-15T00:09:30.288Z,-0.04
2018-01-15T00:10:34.469Z,-0.05
2018-01-15T00:11:38.640Z,-0.04
2018-01-15T00:12:43.803Z,-0.09
2018-01-15T00:13:48.653Z,-0.07
2018-01-15T00:15:04.103Z,-0.09
2018-01-15T00:16:09.784Z,-0.07
2018-01-15T00:17:22.150Z,-0.05
2018-01-15T00:18:26.450Z,-0.08
2018-01-15T00:19:35.568Z,-0.10
2018-01-15T00:20:39.788Z,-0.09
2018-01-15T00:21:49.054Z,-0.09
2018-01-15T00:22:54.453Z,-0.09
2018-01-15T00:23:58.662Z,-0.11
2018-01-15T00:25:03.474Z,-0.12
2018-01-15T00:26:08.278Z,-0.14
2018-01-15T00:27:14.489Z,-0.12
2018-01-15T00:28:19.029Z,-0.12
2018-01-15T00:29:24.048Z,-0.20
2018-01-15T00:30:37.417Z,-0.15
2018-01-15T00:31:41.526Z,-0.12
2018-01-15T00:32:45.712Z,-0.10
2018-01-15T00:33:50.565Z,-0.09
2018-01-15T00:34:56.855Z,-0.08
2018-01-15T00:36:01.100Z,-0.10
2018-01-15T00:37:05.307Z,-0.12
2018-01-15T00:38:10.387Z,-0.11
2018-01-15T00:39:19.405Z,-0.09
2018-01-15T00:40:23.573Z,-0.10
2018-01-15T00:41:38.374Z,-0.18
2018-01-15T00:42:42.573Z,-0.14
2018-01-15T00:43:46.844Z,-0.09
2018-01-15T00:44:51.064Z,-0.19
2018-01-15T00:45:55.902Z,-0.20
2018-01-15T00:47:04.988Z,-0.10
2018-01-15T00:48:14.508Z,-0.06
2018-01-15T00:49:27.375Z,-0.10
2018-01-15T00:50:33.836Z,-0.06
2018-01-15T00:51:40.289Z,-0.17
2018-01-15T00:52:48.760Z,-0.05
2018-01-15T00:54:08.994Z,0.01
2018-01-15T00:55:18.391Z,0.04
2018-01-15T00:56:22.547Z,0.06
2018-01-15T00:57:26.678Z,-0.01
2018-01-15T00:58:32.700Z,0.02
2018-01-15T00:59:37.302Z,0.07
2018-01-15T01:00:41.773Z,0.07
2018-01-15T01:01:46.034Z,0.05
2018-01-15T01:02:51.153Z,0.05
2018-01-15T01:03:56.235Z,0.08
2018-01-15T01:05:01.939Z,0.02
2018-01-15T01:06:15.628Z,0.05
2018-01-15T01:07:20.528Z,0.04
2018-01-15T01:08:27.185Z,0.00
2018-01-15T01:09:32.832Z,-0.02
2018-01-15T01:10:38.014Z,0.08
2018-01-15T01:11:42.227Z,0.11
2018-01-15T01:12:47.297Z,0.12
2018-01-15T01:13:51.683Z,0.12
2018-01-15T01:14:56.721Z,0.08
2018-01-15T01:17:18.174Z,0.01
2018-01-15T01:18:22.374Z,0.04
2018-01-15T01:19:28.754Z,0.06
2018-01-15T01:20:35.283Z,0.07
2018-01-15T01:21:40.276Z,0.10
2018-01-15T01:22:45.342Z,0.11
2018-01-15T01:23:49.692Z,0.05
2018-01-15T01:24:54.421Z,0.00
2018-01-15T01:25:58.551Z,0.12
2018-01-15T01:27:02.955Z,0.01
2018-01-15T01:28:07.995Z,-0.10
2018-01-15T01:29:12.287Z,0.07
2018-01-15T01:30:17.313Z,0.07
2018-01-15T01:31:21.506Z,0.08
2018-01-15T01:32:27.030Z,0.09
2018-01-15T01:33:35.174Z,0.13
2018-01-15T01:34:41.317Z,0.11
2018-01-15T01:35:49.295Z,0.15
2018-01-15T01:36:53.725Z,0.07
2018-01-15T01:38:00.279Z,0.05
2018-01-15T01:39:05.527Z,-0.04
2018-01-15T01:40:09.686Z,0.09
2018-01-15T01:41:13.882Z,0.10
2018-01-15T01:42:18.659Z,0.20
2018-01-15T01:43:25.025Z,0.17
2018-01-15T01:44:30.128Z,0.07
2018-01-15T01:45:34.582Z,0.03
2018-01-15T01:46:41.048Z,0.08
2018-01-15T01:47:45.334Z,0.10
2018-01-15T01:49:01.524Z,0.01
2018-01-15T01:50:06.498Z,0.06
2018-01-15T01:51:11.755Z,0.08
2018-01-15T01:52:16.054Z,0.10
2018-01-15T01:53:20.269Z,0.10
2018-01-15T01:54:25.611Z,0.07
2018-01-15T01:55:31.884Z,0.06
2018-01-15T01:56:38.895Z,0.09
2018-01-15T01:57:44.042Z,0.05
2018-01-15T01:58:51.419Z,-0.01
2018-01-15T02:00:08.746Z,-0.02
2018-01-15T02:01:26.775Z,-0.04
2018-01-15T02:02:32.829Z,0.00
2018-01-15T02:03:37.976Z,0.08
2018-01-15T02:04:44.773Z,0.10
2018-01-15T02:06:07.681Z,0.09
2018-01-15T02:07:12.296Z,0.06
2018-01-15T02:08:18.034Z,0.05
2018-01-15T02:09:22.846Z,0.07
2018-01-15T02:10:29.426Z,0.10
2018-01-15T02:11:33.694Z,0.11
2018-01-15T02:12:37.926Z,0.13
2018-01-15T02:13:42.325Z,0.11
2018-01-15T02:14:47.194Z,0.12
2018-01-15T02:15:52.388Z,0.08
2018-01-15T02:16:56.550Z,0.06
2018-01-15T02:18:03.793Z,0.08
2018-01-15T02:19:08.525Z,0.04
2018-01-15T02:20:13.874Z,0.07
2018-01-15T02:21:18.015Z,0.02
2018-01-15T02:22:23.949Z,0.10
2018-01-15T02:23:29.170Z,0.13
2018-01-15T02:24:35.726Z,0.13
2018-01-15T02:25:42.761Z,0.12
2018-01-15T02:26:47.229Z,0.12
2018-01-15T02:27:51.416Z,0.12
2018-01-15T02:28:56.312Z,0.12
2018-01-15T02:30:03.423Z,-0.02
2018-01-15T02:31:07.999Z,0.05
2018-01-15T02:32:12.493Z,0.09
2018-01-15T02:33:16.750Z,0.11
2018-01-15T02:34:22.572Z,0.11
2018-01-15T02:35:26.779Z,0.12
2018-01-15T02:36:31.234Z,0.06
2018-01-15T02:37:35.440Z,0.01
2018-01-15T02:38:39.595Z,0.06
2018-01-15T02:39:43.689Z,0.08
2018-01-15T02:40:47.798Z,0.08
2018-01-15T02:41:52.004Z,0.04
2018-01-15T02:42:57.219Z,-0.04
2018-01-15T02:44:03.785Z,0.02
2018-01-15T02:45:10.111Z,0.07
2018-01-15T02:46:16.448Z,0.09
2018-01-15T02:47:22.339Z,-0.01
2018-01-15T02:48:27.506Z,0.01
2018-01-15T02:49:33.389Z,0.07
2018-01-15T02:50:37.827Z,0.09
2018-01-15T02:51:42.089Z,0.11
2018-01-15T02:52:46.974Z,0.01
2018-01-15T02:53:52.988Z,0.06
2018-01-15T02:54:58.474Z,0.06
2018-01-15T02:56:03.544Z,0.07
2018-01-15T02:57:07.699Z,0.09
2018-01-15T02:58:13.521Z,0.07
2018-01-15T02:59:18.364Z,0.00
2018-01-15T03:00:24.302Z,0.01
2018-01-15T03:01:29.573Z,0.03
2018-01-15T03:02:33.780Z,0.10
2018-01-15T03:03:40.323Z,0.09
2018-01-15T03:04:45.090Z,0.07
2018-01-15T03:05:50.074Z,0.00
2018-01-15T03:06:55.498Z,0.00
2018-01-15T03:08:00.034Z,0.07
2018-01-15T03:09:06.035Z,0.10
2018-01-15T03:11:18.379Z,0.04
2018-01-15T03:12:22.760Z,0.02
2018-01-15T03:13:26.857Z,0.07
2018-01-15T03:14:30.957Z,0.08
2018-01-15T03:15:35.383Z,0.09
2018-01-15T03:16:39.925Z,0.10
2018-01-15T03:17:44.309Z,0.08
2018-01-15T03:18:48.688Z,0.09
2018-01-15T03:19:53.235Z,0.07
2018-01-15T03:20:57.353Z,0.06
2018-01-15T03:22:01.426Z,0.08
2018-01-15T03:23:05.908Z,-0.01
2018-01-15T03:24:10.028Z,-0.03
2018-01-15T03:25:14.186Z,0.03
2018-01-15T03:26:18.269Z,0.01
2018-01-15T03:27:22.381Z,0.03
2018-01-15T03:28:27.024Z,0.10
2018-01-15T03:29:32.185Z,0.10
2018-01-15T03:30:36.716Z,0.09
2018-01-15T03:31:40.860Z,0.12
2018-01-15T03:32:44.980Z,0.17
2018-01-15T03:33:49.164Z,0.17
2018-01-15T03:34:53.275Z,0.17
2018-01-15T03:35:57.461Z,0.27
2018-01-15T03:37:01.534Z,0.34
2018-01-15T03:38:05.609Z,0.35
2018-01-15T03:39:09.700Z,0.37
2018-01-15T03:40:13.800Z,0.38
2018-01-15T03:41:17.976Z,0.35
2018-01-15T03:42:22.360Z,0.33
2018-01-15T03:43:26.436Z,0.45
2018-01-15T03:44:30.489Z,0.51
2018-01-15T03:45:34.911Z,0.50
2018-01-15T03:46:39.029Z,0.53
2018-01-15T03:47:43.134Z,0.54
2018-01-15T03:48:47.519Z,0.54
2018-01-15T03:49:51.619Z,0.55
2018-01-15T03:50:55.780Z,0.61
2018-01-15T03:52:00.063Z,0.59
2018-01-15T03:53:04.143Z,0.64
2018-01-15T03:54:08.245Z,0.66
2018-01-15T03:55:12.641Z,0.53
2018-01-15T03:56:16.847Z,0.61
2018-01-15T03:57:21.187Z,0.61
2018-01-15T03:58:25.262Z,0.64
2018-01-15T03:59:29.364Z,0.67
2018-01-15T04:00:34.014Z,0.64
2018-01-15T04:01:38.442Z,0.69
2018-01-15T04:02:42.523Z,0.67
2018-01-15T04:03:46.629Z,0.67
2018-01-15T04:04:50.746Z,0.69
2018-01-15T04:05:54.955Z,0.64
2018-01-15T04:06:59.447Z,0.70
2018-01-15T04:08:03.592Z,0.72
2018-01-15T04:09:07.660Z,0.72
2018-01-15T04:10:11.759Z,0.73
2018-01-15T04:11:15.919Z,0.75
2018-01-15T04:12:20.114Z,0.75
2018-01-15T04:13:25.352Z,0.79
2018-01-15T04:14:29.990Z,0.79
2018-01-15T04:15:35.378Z,0.78
2018-01-15T04:16:40.553Z,0.81
2018-01-15T04:17:44.645Z,0.83
2018-01-15T04:18:48.774Z,0.87
2018-01-15T04:19:53.148Z,0.89
2018-01-15T04:20:57.212Z,0.93
2018-01-15T04:22:01.429Z,0.93
2018-01-15T04:23:05.598Z,0.92
2018-01-15T04:24:09.676Z,0.91
2018-01-15T04:25:13.736Z,1.00
2018-01-15T04:26:19.052Z,1.02
2018-01-15T04:27:24.230Z,1.08
2018-01-15T04:28:30.462Z,1.04
2018-01-15T04:29:34.497Z,0.99
2018-01-15T04:30:38.586Z,1.01
2018-01-15T04:31:42.726Z,1.04
2018-01-15T04:32:47.096Z,1.09
2018-01-15T04:33:51.286Z,1.21
2018-01-15T04:34:55.337Z,1.22
2018-01-15T04:35:59.578Z,1.20
2018-01-15T04:37:03.856Z,1.21
2018-01-15T04:38:07.984Z,1.22
2018-01-15T04:39:12.472Z,1.20
2018-01-15T04:40:16.579Z,1.22
2018-01-15T04:41:20.681Z,1.29
2018-01-15T04:42:24.832Z,1.30
2018-01-15T04:43:28.944Z,1.25
2018-01-15T04:44:33.142Z,1.28
2018-01-15T04:45:37.792Z,1.28
2018-01-15T04:46:41.916Z,1.32
2018-01-15T04:47:45.961Z,1.30
2018-01-15T04:48:50.413Z,1.18
2018-01-15T04:49:54.579Z,1.19
2018-01-15T04:50:58.753Z,1.17
2018-01-15T04:52:03.390Z,1.15
2018-01-15T04:53:07.452Z,1.16
2018-01-15T04:54:11.572Z,1.23
2018-01-15T04:55:15.649Z,1.28
2018-01-15T04:56:19.832Z,1.33
2018-01-15T04:57:24.211Z,1.36
2018-01-15T04:58:28.300Z,1.38
2018-01-15T04:59:32.472Z,1.41
2018-01-15T05:00:37.018Z,1.45
2018-01-15T05:01:41.185Z,1.45
2018-01-15T05:02:45.616Z,1.47
2018-01-15T05:03:49.769Z,1.42
2018-01-15T05:04:53.876Z,1.41
2018-01-15T05:05:58.664Z,1.50
2018-01-15T05:07:02.799Z,1.52
2018-01-15T05:08:06.903Z,1.52
2018-01-15T05:09:11.303Z,1.59
2018-01-15T05:10:15.492Z,1.60
2018-01-15T05:11:19.604Z,1.60
2018-01-15T05:12:23.741Z,1.70
2018-01-15T05:13:27.838Z,1.70
2018-01-15T05:14:32.040Z,1.76
2018-01-15T05:15:36.888Z,1.77
2018-01-15T05:16:40.976Z,1.78
2018-01-15T05:17:45.065Z,1.81
2018-01-15T05:18:49.254Z,1.89
2018-01-15T05:19:54.056Z,1.92
2018-01-15T05:20:58.164Z,1.93
2018-01-15T05:22:03.128Z,1.92
2018-01-15T05:23:07.225Z,1.88
2018-01-15T05:24:11.363Z,1.91
2018-01-15T05:25:15.856Z,1.93
2018-01-15T05:26:19.940Z,1.92
2018-01-15T05:27:24.275Z,2.00
2018-01-15T05:28:28.634Z,1.93
2018-01-15T05:29:32.708Z,1.87
2018-01-15T05:30:37.161Z,1.94
2018-01-15T05:31:41.256Z,2.06
2018-01-15T05:32:45.413Z,2.06
2018-01-15T05:33:50.704Z,2.09
2018-01-15T05:34:55.996Z,2.13
2018-01-15T05:36:00.892Z,2.15
2018-01-15T05:37:04.963Z,2.17
2018-01-15T05:38:09.123Z,2.21
2018-01-15T05:39:13.182Z,2.25
2018-01-15T05:40:17.341Z,2.26
2018-01-15T05:41:21.741Z,2.25
2018-01-15T05:42:25.920Z,2.17
2018-01-15T05:43:30.021Z,2.21
2018-01-15T05:44:34.180Z,2.29
2018-01-15T05:45:38.537Z,2.23
2018-01-15T05:46:43.101Z,2.29
2018-01-15T05:47:47.909Z,2.28
2018-01-15T05:48:52.014Z,2.27
2018-01-15T05:49:56.768Z,2.28
2018-01-15T05:51:01.480Z,2.26
2018-01-15T05:52:05.568Z,2.29
2018-01-15T05:53:10.027Z,2.33
2018-01-15T05:54:14.136Z,2.29
2018-01-15T05:55:18.264Z,2.29
2018-01-15T05:56:22.432Z,2.31
2018-01-15T05:57:26.529Z,2.32
2018-01-15T05:58:30.732Z,2.20
2018-01-15T05:59:35.145Z,2.23
2018-01-15T06:00:39.541Z,2.26
2018-01-15T06:01:43.674Z,2.26
2018-01-15T06:02:47.822Z,2.26
2018-01-15T06:03:51.963Z,2.25
2018-01-15T06:04:56.855Z,2.23
2018-01-15T06:06:02.282Z,2.24
2018-01-15T06:07:06.384Z,2.20
2018-01-15T06:08:10.451Z,2.23
2018-01-15T06:09:14.598Z,2.29
2018-01-15T06:10:18.790Z,2.34
2018-01-15T06:11:22.926Z,2.29
2018-01-15T06:12:27.079Z,2.37
2018-01-15T06:13:31.207Z,2.42
2018-01-15T06:14:35.409Z,2.45
2018-01-15T06:15:40.063Z,2.42
2018-01-15T06:16:44.227Z,2.40
2018-01-15T06:17:48.361Z,2.40
2018-01-15T06:18:52.908Z,2.42
2018-01-15T06:19:57.480Z,2.45
2018-01-15T06:21:01.592Z,2.33
2018-01-15T06:22:06.279Z,2.35
2018-01-15T06:23:10.364Z,2.41
2018-01-15T06:24:14.432Z,2.41
2018-01-15T06:25:18.960Z,2.40
2018-01-15T06:26:23.053Z,2.38
2018-01-15T06:27:27.185Z,2.33
2018-01-15T06:28:31.364Z,2.36
2018-01-15T06:29:35.499Z,2.29
2018-01-15T06:30:39.719Z,2.26
2018-01-15T06:31:44.135Z,2.30
2018-01-15T06:32:48.271Z,2.30
2018-01-15T06:33:53.062Z,2.28
2018-01-15T06:34:57.182Z,2.32
2018-01-15T06:36:01.322Z,2.37
2018-01-15T06:37:05.461Z,2.38
2018-01-15T06:39:13.306Z,2.37
2018-01-15T06:40:17.385Z,2.37
2018-01-15T06:41:21.510Z,2.31
2018-01-15T06:42:25.604Z,2.32
2018-01-15T06:43:29.695Z,2.31
2018-01-15T06:44:34.179Z,2.39
2018-01-15T06:45:38.526Z,2.39
2018-01-15T06:46:42.601Z,2.38
2018-01-15T06:47:46.681Z,2.41
2018-01-15T06:48:50.844Z,2.48
2018-01-15T06:49:55.562Z,2.49
2018-01-15T06:51:00.168Z,2.40
2018-01-15T06:52:05.166Z,2.48
2018-01-15T06:53:09.334Z,2.49
2018-01-15T06:54:13.512Z,2.42
2018-01-15T06:55:17.599Z,2.45
2018-01-15T06:57:24.723Z,2.39
2018-01-15T06:58:28.852Z,2.37
2018-01-15T06:59:32.996Z,2.39
2018-01-15T07:00:37.108Z,2.37
2018-01-15T07:01:41.298Z,2.39
2018-01-15T07:02:45.483Z,2.38
2018-01-15T07:03:49.569Z,2.39
2018-01-15T07:04:53.784Z,2.45
2018-01-15T07:05:58.897Z,2.53
2018-01-15T07:07:03.004Z,2.49
2018-01-15T07:08:07.124Z,2.52
2018-01-15T07:09:11.508Z,2.58
2018-01-15T07:10:15.738Z,2.57
2018-01-15T07:11:19.855Z,2.60
2018-01-15T07:12:24.016Z,2.59
2018-01-15T07:13:28.119Z,2.57
2018-01-15T07:14:32.324Z,2.61
2018-01-15T07:15:36.839Z,2.67
2018-01-15T07:16:40.970Z,2.69
2018-01-15T07:17:45.092Z,2.73
2018-01-15T07:18:49.360Z,2.72
2018-01-15T07:19:54.157Z,2.68
2018-01-15T07:20:58.332Z,2.67
2018-01-15T07:22:02.918Z,2.71
2018-01-15T07:23:07.058Z,2.74
2018-01-15T07:24:11.166Z,2.78
2018-01-15T07:25:15.382Z,2.75
2018-01-15T07:26:19.488Z,2.78
2018-01-15T07:28:26.719Z,2.79
2018-01-15T07:29:30.839Z,2.81
2018-01-15T07:30:35.282Z,2.80
2018-01-15T07:31:39.525Z,2.78
2018-01-15T07:32:43.645Z,2.79
2018-01-15T07:33:47.865Z,2.80
2018-01-15T07:34:52.842Z,2.83
2018-01-15T07:35:57.074Z,2.86
2018-01-15T07:37:02.034Z,2.82
2018-01-15T07:38:06.104Z,2.78
2018-01-15T07:39:10.153Z,2.76
2018-01-15T07:40:14.612Z,2.76
2018-01-15T07:41:18.840Z,2.74
2018-01-15T07:42:22.903Z,2.76
2018-01-15T07:43:27.017Z,2.72
2018-01-15T07:44:31.184Z,2.69
2018-01-15T07:45:35.584Z,2.76
2018-01-15T07:46:40.368Z,2.79
2018-01-15T07:47:44.493Z,2.79
2018-01-15T07:48:48.665Z,2.83
2018-01-15T07:49:53.659Z,2.86
2018-01-15T07:50:57.910Z,2.89
2018-01-15T07:52:02.636Z,2.85
2018-01-15T07:53:06.854Z,2.84
2018-01-15T07:54:11.029Z,2.87
2018-01-15T07:55:15.124Z,2.85
2018-01-15T07:56:19.245Z,2.90
2018-01-15T07:57:23.408Z,2.92
2018-01-15T07:58:27.485Z,2.97
2018-01-15T07:59:31.740Z,2.99
2018-01-15T08:00:36.165Z,2.94
2018-01-15T08:01:40.396Z,2.95
2018-01-15T08:02:44.541Z,2.94
2018-01-15T08:03:48.616Z,2.97
2018-01-15T08:04:53.121Z,2.99
2018-01-15T08:05:58.131Z,3.01
2018-01-15T08:07:02.486Z,2.99
2018-01-15T08:08:06.632Z,2.95
2018-01-15T08:09:10.797Z,2.93
2018-01-15T08:10:14.996Z,2.91
2018-01-15T08:11:19.381Z,2.91
2018-01-15T08:12:23.597Z,2.92
2018-01-15T08:13:27.721Z,2.92
2018-01-15T08:14:31.814Z,2.89
2018-01-15T08:15:36.028Z,2.80
2018-01-15T08:16:40.137Z,2.85
2018-01-15T08:17:44.701Z,2.87
2018-01-15T08:18:48.825Z,2.97
2018-01-15T08:19:52.916Z,3.02
2018-01-15T08:20:57.025Z,3.04
2018-01-15T08:22:01.122Z,3.03
2018-01-15T08:23:06.085Z,3.07
2018-01-15T08:24:10.222Z,3.07
2018-01-15T08:25:14.308Z,3.07
2018-01-15T08:26:18.470Z,3.13
2018-01-15T08:27:22.625Z,3.12
2018-01-15T08:28:26.849Z,3.06
2018-01-15T08:29:31.291Z,3.09
2018-01-15T08:30:35.668Z,3.10
2018-01-15T08:31:39.775Z,3.08
2018-01-15T08:32:43.920Z,3.14
2018-01-15T08:33:48.153Z,3.09
2018-01-15T08:34:53.108Z,3.12
2018-01-15T08:35:57.236Z,3.11
2018-01-15T08:37:01.460Z,3.17
2018-01-15T08:38:05.697Z,3.19
2018-01-15T08:39:09.910Z,3.20
2018-01-15T08:40:14.069Z,3.29
2018-01-15T08:41:18.520Z,3.31
2018-01-15T08:42:22.643Z,3.26
2018-01-15T08:43:26.930Z,3.20
2018-01-15T08:44:37.531Z,3.23
2018-01-15T08:45:41.993Z,3.27
2018-01-15T08:46:46.432Z,3.29
2018-01-15T08:47:50.853Z,3.32
2018-01-15T08:48:55.026Z,3.38
2018-01-15T08:51:02.168Z,3.37
2018-01-15T08:52:06.364Z,3.32
2018-01-15T08:53:10.433Z,3.32
2018-01-15T08:54:14.673Z,3.39
2018-01-15T08:55:18.829Z,3.31
2018-01-15T08:56:22.938Z,3.42
2018-01-15T08:57:27.145Z,3.47
2018-01-15T08:58:31.382Z,3.52
2018-01-15T08:59:35.528Z,3.53
2018-01-15T09:00:40.246Z,3.58
2018-01-15T09:01:44.344Z,3.66
2018-01-15T09:02:48.424Z,3.58
2018-01-15T09:03:53.498Z,3.55
2018-01-15T09:04:57.663Z,3.52
2018-01-15T09:06:02.812Z,3.56
2018-01-15T09:07:07.219Z,3.47
2018-01-15T09:08:11.308Z,3.55
2018-01-15T09:09:15.446Z,3.66
2018-01-15T09:10:19.655Z,3.68
2018-01-15T09:11:23.797Z,3.64
2018-01-15T09:12:27.890Z,3.58
2018-01-15T09:13:32.332Z,3.58
2018-01-15T09:14:36.433Z,3.60
2018-01-15T09:15:40.859Z,3.70
2018-01-15T09:16:44.961Z,3.73
2018-01-15T09:17:49.156Z,3.76
2018-01-15T09:18:53.501Z,3.73
2018-01-15T09:19:57.980Z,3.83
2018-01-15T09:21:02.980Z,3.76
2018-01-15T09:22:07.169Z,3.75
2018-01-15T09:23:11.342Z,3.79
2018-01-15T09:24:15.466Z,3.82
2018-01-15T09:25:19.910Z,3.84
2018-01-15T09:26:24.021Z,3.86
2018-01-15T09:27:28.219Z,3.85
2018-01-15T09:28:32.358Z,3.83
2018-01-15T09:29:36.518Z,3.86
2018-01-15T09:30:40.636Z,3.89
2018-01-15T09:31:45.472Z,3.84
2018-01-15T09:32:49.995Z,3.96
2018-01-15T09:33:55.272Z,4.07
2018-01-15T09:34:59.460Z,4.11
2018-01-15T09:36:04.124Z,4.07
2018-01-15T09:37:08.252Z,4.00
2018-01-15T09:38:12.760Z,4.03
2018-01-15T09:39:16.963Z,4.03
2018-01-15T09:40:21.134Z,4.05
2018-01-15T09:41:25.254Z,4.05
2018-01-15T09:42:29.366Z,4.08
2018-01-15T09:43:33.510Z,4.12
2018-01-15T09:44:37.668Z,4.13
2018-01-15T09:45:41.959Z,4.18
2018-01-15T09:46:46.126Z,4.19
2018-01-15T09:47:50.322Z,4.09
2018-01-15T09:48:54.445Z,4.02
2018-01-15T09:49:59.750Z,4.16
2018-01-15T09:51:04.836Z,4.21
2018-01-15T09:52:09.001Z,4.29
2018-01-15T09:53:13.213Z,4.31
2018-01-15T09:54:17.491Z,4.12
2018-01-15T09:55:21.618Z,4.19
2018-01-15T09:56:26.130Z,4.16
2018-01-15T09:57:30.237Z,4.18
2018-01-15T09:58:34.467Z,4.19
2018-01-15T09:59:38.955Z,4.16
2018-01-15T10:00:43.149Z,4.16
2018-01-15T10:01:47.420Z,4.24
2018-01-15T10:02:52.076Z,4.31
2018-01-15T10:03:57.177Z,4.35
2018-01-15T10:05:01.403Z,4.31
2018-01-15T10:06:05.546Z,4.27
2018-01-15T10:07:09.720Z,4.34
2018-01-15T10:08:13.827Z,4.31
2018-01-15T10:09:18.385Z,4.37
2018-01-15T10:11:25.617Z,4.24
2018-01-15T10:12:29.766Z,4.31
2018-01-15T10:13:33.948Z,4.13
2018-01-15T10:14:38.575Z,4.20
2018-01-15T10:15:42.760Z,4.15
2018-01-15T10:16:46.912Z,4.25
2018-01-15T10:17:51.006Z,4.30
2018-01-15T10:18:55.945Z,4.31
2018-01-15T10:20:01.100Z,4.24
2018-01-15T10:21:05.592Z,4.33
2018-01-15T10:22:09.814Z,4.24
2018-01-15T10:23:13.983Z,4.27
2018-01-15T10:24:18.190Z,4.37
2018-01-15T10:25:22.380Z,4.45
2018-01-15T10:26:26.494Z,4.46
2018-01-15T10:27:30.975Z,4.49
2018-01-15T10:28:35.220Z,4.48
2018-01-15T10:29:39.364Z,4.50
2018-01-15T10:30:43.609Z,4.57
2018-01-15T10:31:47.828Z,4.55
2018-01-15T10:32:52.701Z,4.56
2018-01-15T10:33:57.128Z,4.57
2018-01-15T10:35:01.239Z,4.59
2018-01-15T10:36:05.500Z,4.59
2018-01-15T10:37:10.167Z,4.58
2018-01-15T10:38:14.448Z,4.58
2018-01-15T10:39:18.667Z,4.49
2018-01-15T10:40:22.849Z,4.44
2018-01-15T10:41:27.159Z,4.53
2018-01-15T10:42:31.312Z,4.58
2018-01-15T10:43:35.502Z,4.60
2018-01-15T10:44:40.014Z,4.58
2018-01-15T10:45:44.419Z,4.61
2018-01-15T10:46:49.149Z,4.69
2018-01-15T10:47:54.361Z,4.70
2018-01-15T10:48:58.622Z,4.61
2018-01-15T10:50:02.814Z,4.67
2018-01-15T10:51:06.929Z,4.73
2018-01-15T10:52:11.129Z,4.75
2018-01-15T10:53:15.580Z,4.75
2018-01-15T10:54:20.458Z,4.67
2018-01-15T10:55:24.648Z,4.71
2018-01-15T10:56:28.767Z,4.66
2018-01-15T10:57:32.987Z,4.71
2018-01-15T10:59:40.459Z,4.84
2018-01-15T11:00:49.010Z,4.91
2018-01-15T11:01:53.440Z,4.75
2018-01-15T11:02:57.600Z,4.65
2018-01-15T11:04:01.721Z,4.70
2018-01-15T11:05:06.380Z,4.77
2018-01-15T11:06:10.513Z,4.72
2018-01-15T11:07:14.640Z,4.70
2018-01-15T11:08:18.888Z,4.74
2018-01-15T11:09:23.133Z,4.81
2018-01-15T11:10:27.437Z,4.87
2018-01-15T11:11:31.912Z,4.93
2018-01-15T11:12:36.040Z,4.88
2018-01-15T11:13:40.270Z,4.86
2018-01-15T11:14:44.443Z,4.72
2018-01-15T11:15:48.863Z,4.74
2018-01-15T11:16:53.609Z,4.85
2018-01-15T11:17:58.101Z,4.90
2018-01-15T11:19:02.225Z,4.85
2018-01-15T11:20:06.414Z,4.89
2018-01-15T11:21:10.621Z,4.88
2018-01-15T11:22:14.767Z,4.98
2018-01-15T11:23:18.940Z,5.09
2018-01-15T11:24:23.367Z,5.14
2018-01-15T11:25:27.669Z,5.21
2018-01-15T11:26:31.802Z,5.24
2018-01-15T11:27:35.932Z,5.28
2018-01-15T11:28:40.057Z,5.35
2018-01-15T11:29:44.294Z,5.34
2018-01-15T11:30:48.831Z,5.25
2018-01-15T11:31:52.973Z,5.30
2018-01-15T11:32:57.644Z,5.29
2018-01-15T11:34:01.774Z,5.32
2018-01-15T11:35:06.542Z,5.31
2018-01-15T11:36:10.820Z,5.27
2018-01-15T11:37:15.234Z,5.24
2018-01-15T11:38:19.603Z,5.14
2018-01-15T11:39:23.863Z,5.19
2018-01-15T11:40:28.118Z,5.28
2018-01-15T11:41:32.395Z,5.31
2018-01-15T11:42:36.835Z,5.29
2018-01-15T11:43:41.008Z,5.31
2018-01-15T11:44:45.250Z,5.42
2018-01-15T11:45:49.729Z,5.31
2018-01-15T11:46:53.957Z,5.26
2018-01-15T11:47:58.128Z,5.40
2018-01-15T11:49:02.668Z,5.45
2018-01-15T11:50:06.833Z,5.49
2018-01-15T11:51:11.052Z,5.37
2018-01-15T11:52:15.348Z,5.42
2018-01-15T11:53:19.611Z,5.52
2018-01-15T11:54:24.188Z,5.53
2018-01-15T11:55:28.684Z,5.55
2018-01-15T11:56:32.838Z,5.50
2018-01-15T11:57:37.163Z,5.57
2018-01-15T11:58:41.351Z,5.65
2018-01-15T11:59:45.468Z,5.63
2018-01-15T12:00:50.344Z,5.72
2018-01-15T12:02:57.724Z,5.71
2018-01-15T12:04:01.955Z,5.75
2018-01-15T12:05:06.115Z,5.72
2018-01-15T12:06:10.297Z,5.72
2018-01-15T12:07:14.750Z,5.74
2018-01-15T12:08:18.963Z,5.75
2018-01-15T12:09:23.156Z,5.71
2018-01-15T12:10:27.342Z,5.72
2018-01-15T12:11:31.414Z,5.79
2018-01-15T12:12:35.532Z,5.88
2018-01-15T12:13:40.086Z,5.97
2018-01-15T12:14:44.417Z,6.02
2018-01-15T12:15:48.773Z,5.99
2018-01-15T12:16:53.705Z,5.89
2018-01-15T12:17:57.954Z,5.89
2018-01-15T12:19:03.294Z,5.87
2018-01-15T12:20:07.713Z,5.85
2018-01-15T12:21:12.290Z,5.84
2018-01-15T12:22:16.458Z,5.91
2018-01-15T12:23:20.680Z,5.91
2018-01-15T12:24:24.915Z,5.94
2018-01-15T12:25:29.447Z,5.98
2018-01-15T12:26:33.587Z,6.01
2018-01-15T12:27:38.557Z,6.06
2018-01-15T12:28:42.722Z,6.02
2018-01-15T12:29:47.046Z,5.92
2018-01-15T12:30:51.592Z,6.00
2018-01-15T12:31:56.223Z,5.97
2018-01-15T12:33:01.402Z,6.02
2018-01-15T12:34:05.809Z,6.11
2018-01-15T12:35:10.046Z,6.08
2018-01-15T12:36:14.285Z,5.99
2018-01-15T12:37:18.842Z,5.90
2018-01-15T12:38:23.784Z,5.80
2018-01-15T12:39:27.939Z,5.88
2018-01-15T12:40:32.091Z,5.81
2018-01-15T12:41:36.345Z,5.77
2018-01-15T12:42:40.510Z,5.83
2018-01-15T12:43:45.088Z,5.82
2018-01-15T12:44:49.349Z,5.87
2018-01-15T12:45:54.617Z,5.87
2018-01-15T12:46:58.724Z,5.83
2018-01-15T12:48:03.068Z,5.81
2018-01-15T12:49:07.302Z,5.81
2018-01-15T12:50:11.861Z,5.79
2018-01-15T12:51:16.035Z,5.71
2018-01-15T12:52:20.237Z,5.68
2018-01-15T12:53:24.385Z,5.74
2018-01-15T12:54:28.537Z,5.74
2018-01-15T12:55:32.796Z,5.78
2018-01-15T12:56:36.943Z,5.83
2018-01-15T12:57:41.205Z,5.77
2018-01-15T12:58:45.502Z,5.74
2018-01-15T12:59:49.764Z,5.77
2018-01-15T13:00:54.449Z,5.80
2018-01-15T13:02:03.496Z,5.76
2018-01-15T13:03:08.091Z,5.76
2018-01-15T13:04:12.258Z,5.78
2018-01-15T13:05:16.438Z,5.75
2018-01-15T13:06:21.400Z,5.87
2018-01-15T13:07:34.680Z,5.77
2018-01-15T13:08:44.041Z,5.89
2018-01-15T13:09:48.349Z,5.89
2018-01-15T13:10:52.642Z,5.91
2018-01-15T13:11:57.752Z,5.94
2018-01-15T13:13:02.060Z,5.95
2018-01-15T13:14:06.530Z,6.00
2018-01-15T13:15:13.140Z,6.00
2018-01-15T13:16:17.766Z,6.07
2018-01-15T13:17:22.396Z,6.12
2018-01-15T13:18:26.568Z,6.15
2018-01-15T13:19:30.699Z,6.12
2018-01-15T13:20:35.976Z,6.09
2018-01-15T13:21:40.148Z,6.15
2018-01-15T13:22:44.520Z,6.11
2018-01-15T13:23:48.775Z,6.13
2018-01-15T13:24:53.453Z,6.17
2018-01-15T13:25:58.315Z,6.18
2018-01-15T13:27:02.508Z,6.06
2018-01-15T13:28:06.734Z,6.10
2018-01-15T13:29:10.894Z,6.18
2018-01-15T13:30:16.540Z,6.19
2018-01-15T13:31:20.957Z,6.20
2018-01-15T13:32:25.486Z,6.20
2018-01-15T13:33:29.734Z,6.12
2018-01-15T13:34:33.929Z,6.10
2018-01-15T13:35:38.078Z,6.04
2018-01-15T13:36:42.696Z,6.05
2018-01-15T13:37:46.946Z,6.07
2018-01-15T13:38:51.756Z,6.15
2018-01-15T13:39:55.981Z,6.19
2018-01-15T13:41:00.316Z,6.23
2018-01-15T13:42:04.524Z,6.23
2018-01-15T13:43:08.980Z,6.26
2018-01-15T13:44:13.141Z,6.31
2018-01-15T13:45:17.813Z,6.29
2018-01-15T13:46:22.080Z,6.27
2018-01-15T13:47:26.407Z,6.30
2018-01-15T13:48:30.618Z,6.24
2018-01-15T13:49:35.522Z,6.23
2018-01-15T13:50:39.695Z,6.22
2018-01-15T13:51:44.769Z,6.29
2018-01-15T13:52:49.171Z,6.29
2018-01-15T13:53:53.622Z,6.32
2018-01-15T13:54:58.550Z,6.40
2018-01-15T13:56:03.205Z,6.33
2018-01-15T13:57:07.420Z,6.30
2018-01-15T13:58:11.604Z,6.29
2018-01-15T13:59:15.796Z,6.34
2018-01-15T14:00:19.954Z,6.31
2018-01-15T14:01:24.214Z,6.26
2018-01-15T14:02:28.352Z,6.30
2018-01-15T14:03:32.526Z,6.32
2018-01-15T14:04:36.820Z,6.35
2018-01-15T14:05:41.064Z,6.39
2018-01-15T14:06:45.226Z,6.42
2018-01-15T14:07:49.631Z,6.37
2018-01-15T14:08:54.220Z,6.35
2018-01-15T14:09:59.404Z,6.41
2018-01-15T14:11:03.612Z,6.45
2018-01-15T14:12:07.734Z,6.44
2018-01-15T14:13:11.924Z,6.44
2018-01-15T14:14:16.165Z,6.36
2018-01-15T14:15:20.896Z,6.36
2018-01-15T14:16:25.443Z,6.39
2018-01-15T14:17:29.657Z,6.44
2018-01-15T14:18:33.825Z,6.39
2018-01-15T14:19:38.014Z,6.41
2018-01-15T14:20:42.208Z,6.43
2018-01-15T14:21:46.822Z,6.39
2018-01-15T14:22:51.017Z,6.44
2018-01-15T14:23:55.195Z,6.46
2018-01-15T14:25:00.109Z,6.45
2018-01-15T14:26:04.338Z,6.49
2018-01-15T14:27:08.814Z,6.40
2018-01-15T14:28:13.030Z,6.44
2018-01-15T14:29:17.313Z,6.49